sensor_id;sensor_type;location;lat;lon;timestamp;temperature;humidity
11925;DHT22;6022;48.768;18.608;2022-07-29T00:00:27;20.90;99.90
11925;DHT22;6022;48.768;18.608;2022-07-29T00:02:55;21.00;99.90
11925;DHT22;6022;48.768;18.608;2022-07-29T00:05:22;20.90;99.90
11925;DHT22;6022;48.768;18.608;2022-07-29T00:07:50;21.10;99.90
11925;DHT22;6022;48.768;18.608;2022-07-29T00:10:17;20.90;99.90
11925;DHT22;6022;48.768;18.608;2022-07-29T00:12:45;20.80;99.90
11925;DHT22;6022;48.768;18.608;2022-07-29T00:15:15;20.60;99.90
11925;DHT22;6022;48.768;18.608;2022-07-29T00:17:42;20.80;99.90
11925;DHT22;6022;48.768;18.608;2022-07-29T00:20:10;20.90;99.90
11925;DHT22;6022;48.768;18.608;2022-07-29T00:22:38;20.90;99.90
11925;DHT22;6022;48.768;18.608;2022-07-29T00:25:06;20.80;99.90
11925;DHT22;6022;48.768;18.608;2022-07-29T00:27:37;20.70;99.90
11925;DHT22;6022;48.768;18.608;2022-07-29T00:30:05;20.80;99.90
11925;DHT22;6022;48.768;18.608;2022-07-29T00:32:34;20.70;99.90
11925;DHT22;6022;48.768;18.608;2022-07-29T00:35:01;20.70;99.90
11925;DHT22;6022;48.768;18.608;2022-07-29T00:37:47;20.70;99.90
11925;DHT22;6022;48.768;18.608;2022-07-29T00:40:14;20.40;99.90
11925;DHT22;6022;48.768;18.608;2022-07-29T00:42:44;20.50;99.90
11925;DHT22;6022;48.768;18.608;2022-07-29T00:45:19;20.60;99.90
11925;DHT22;6022;48.768;18.608;2022-07-29T00:47:47;20.40;99.90
11925;DHT22;6022;48.768;18.608;2022-07-29T00:50:14;20.50;99.90
11925;DHT22;6022;48.768;18.608;2022-07-29T00:52:42;20.60;99.90
11925;DHT22;6022;48.768;18.608;2022-07-29T00:55:12;20.50;99.90
11925;DHT22;6022;48.768;18.608;2022-07-29T00:57:42;20.60;99.90
11925;DHT22;6022;48.768;18.608;2022-07-29T01:00:22;20.50;99.90
11925;DHT22;6022;48.768;18.608;2022-07-29T01:02:51;20.40;99.90
11925;DHT22;6022;48.768;18.608;2022-07-29T01:05:24;20.70;99.90
11925;DHT22;6022;48.768;18.608;2022-07-29T01:08:15;20.40;99.90
11925;DHT22;6022;48.768;18.608;2022-07-29T01:10:44;20.50;99.90
11925;DHT22;6022;48.768;18.608;2022-07-29T01:13:17;20.50;99.90
11925;DHT22;6022;48.768;18.608;2022-07-29T01:15:51;20.50;99.90
11925;DHT22;6022;48.768;18.608;2022-07-29T01:18:34;20.40;99.90
11925;DHT22;6022;48.768;18.608;2022-07-29T01:30:38;20.10;99.90
11925;DHT22;6022;48.768;18.608;2022-07-29T01:33:13;20.40;99.90
11925;DHT22;6022;48.768;18.608;2022-07-29T01:36:11;20.40;99.90
11925;DHT22;6022;48.768;18.608;2022-07-29T01:38:59;20.30;99.90
11925;DHT22;6022;48.768;18.608;2022-07-29T01:41:49;20.20;99.90
11925;DHT22;6022;48.768;18.608;2022-07-29T01:47:17;20.30;99.90
11925;DHT22;6022;48.768;18.608;2022-07-29T01:49:50;20.20;99.90
11925;DHT22;6022;48.768;18.608;2022-07-29T01:52:31;20.30;99.90
11925;DHT22;6022;48.768;18.608;2022-07-29T01:55:13;20.30;99.90
11925;DHT22;6022;48.768;18.608;2022-07-29T01:57:44;20.30;99.90
11925;DHT22;6022;48.768;18.608;2022-07-29T02:00:14;20.30;99.90
11925;DHT22;6022;48.768;18.608;2022-07-29T02:02:46;20.30;99.90
11925;DHT22;6022;48.768;18.608;2022-07-29T02:05:20;20.20;99.90
11925;DHT22;6022;48.768;18.608;2022-07-29T02:07:50;20.20;99.90
11925;DHT22;6022;48.768;18.608;2022-07-29T02:10:22;20.20;99.90
11925;DHT22;6022;48.768;18.608;2022-07-29T02:12:54;20.20;99.90
11925;DHT22;6022;48.768;18.608;2022-07-29T02:15:29;20.10;99.90
11925;DHT22;6022;48.768;18.608;2022-07-29T02:18:06;20.20;99.90
11925;DHT22;6022;48.768;18.608;2022-07-29T02:20:36;20.20;99.90
11925;DHT22;6022;48.768;18.608;2022-07-29T02:23:09;20.20;99.90
11925;DHT22;6022;48.768;18.608;2022-07-29T02:25:38;20.20;99.90
11925;DHT22;6022;48.768;18.608;2022-07-29T02:28:11;20.10;99.90
11925;DHT22;6022;48.768;18.608;2022-07-29T02:30:45;20.10;99.90
11925;DHT22;6022;48.768;18.608;2022-07-29T02:33:16;20.20;99.90
11925;DHT22;6022;48.768;18.608;2022-07-29T02:35:46;20.40;99.90
11925;DHT22;6022;48.768;18.608;2022-07-29T02:38:18;20.20;99.90
11925;DHT22;6022;48.768;18.608;2022-07-29T02:41:13;20.20;99.90
11925;DHT22;6022;48.768;18.608;2022-07-29T02:43:45;20.10;99.90
11925;DHT22;6022;48.768;18.608;2022-07-29T02:46:19;20.10;99.90
11925;DHT22;6022;48.768;18.608;2022-07-29T02:51:44;20.10;99.90
11925;DHT22;6022;48.768;18.608;2022-07-29T02:57:20;20.10;99.90
11925;DHT22;6022;48.768;18.608;2022-07-29T02:59:57;20.10;99.90
11925;DHT22;6022;48.768;18.608;2022-07-29T03:02:40;20.00;99.90
11925;DHT22;6022;48.768;18.608;2022-07-29T03:05:16;20.10;99.90
11925;DHT22;6022;48.768;18.608;2022-07-29T03:07:48;20.30;99.90
11925;DHT22;6022;48.768;18.608;2022-07-29T03:10:20;20.60;99.90
11925;DHT22;6022;48.768;18.608;2022-07-29T03:12:48;20.40;99.90
11925;DHT22;6022;48.768;18.608;2022-07-29T03:15:16;20.50;99.90
11925;DHT22;6022;48.768;18.608;2022-07-29T03:17:45;20.50;99.90
11925;DHT22;6022;48.768;18.608;2022-07-29T03:20:13;20.40;99.90
11925;DHT22;6022;48.768;18.608;2022-07-29T03:22:42;20.60;99.90
11925;DHT22;6022;48.768;18.608;2022-07-29T03:25:12;20.70;99.90
11925;DHT22;6022;48.768;18.608;2022-07-29T03:27:44;20.30;99.90
11925;DHT22;6022;48.768;18.608;2022-07-29T03:30:13;20.40;99.90
11925;DHT22;6022;48.768;18.608;2022-07-29T03:32:48;20.40;99.90
11925;DHT22;6022;48.768;18.608;2022-07-29T03:35:21;20.10;99.90
11925;DHT22;6022;48.768;18.608;2022-07-29T03:37:49;20.10;99.90
11925;DHT22;6022;48.768;18.608;2022-07-29T03:40:24;20.00;99.90
11925;DHT22;6022;48.768;18.608;2022-07-29T03:42:55;20.00;99.90
11925;DHT22;6022;48.768;18.608;2022-07-29T03:45:25;20.00;99.90
11925;DHT22;6022;48.768;18.608;2022-07-29T03:47:59;20.00;99.90
11925;DHT22;6022;48.768;18.608;2022-07-29T03:50:30;20.00;99.90
11925;DHT22;6022;48.768;18.608;2022-07-29T03:53:01;19.90;99.90
11925;DHT22;6022;48.768;18.608;2022-07-29T03:55:41;20.10;99.90
11925;DHT22;6022;48.768;18.608;2022-07-29T03:58:14;20.00;99.90
11925;DHT22;6022;48.768;18.608;2022-07-29T04:00:42;20.20;99.90
11925;DHT22;6022;48.768;18.608;2022-07-29T04:03:10;20.10;99.90
11925;DHT22;6022;48.768;18.608;2022-07-29T04:05:41;20.20;99.90
11925;DHT22;6022;48.768;18.608;2022-07-29T04:08:09;20.40;99.90
11925;DHT22;6022;48.768;18.608;2022-07-29T04:10:38;20.20;99.90
11925;DHT22;6022;48.768;18.608;2022-07-29T04:13:08;20.70;99.90
11925;DHT22;6022;48.768;18.608;2022-07-29T04:15:36;20.40;99.90
11925;DHT22;6022;48.768;18.608;2022-07-29T04:18:04;20.30;99.90
11925;DHT22;6022;48.768;18.608;2022-07-29T04:20:33;20.40;99.90
11925;DHT22;6022;48.768;18.608;2022-07-29T04:23:01;20.40;99.90
11925;DHT22;6022;48.768;18.608;2022-07-29T04:25:28;20.40;99.90
11925;DHT22;6022;48.768;18.608;2022-07-29T04:27:57;20.40;99.90
11925;DHT22;6022;48.768;18.608;2022-07-29T04:30:28;20.40;99.90
11925;DHT22;6022;48.768;18.608;2022-07-29T04:32:56;20.40;99.90
11925;DHT22;6022;48.768;18.608;2022-07-29T04:35:24;20.40;99.90
11925;DHT22;6022;48.768;18.608;2022-07-29T04:37:51;20.20;99.90
11925;DHT22;6022;48.768;18.608;2022-07-29T04:40:20;20.50;99.90
11925;DHT22;6022;48.768;18.608;2022-07-29T04:42:47;20.50;99.90
11925;DHT22;6022;48.768;18.608;2022-07-29T04:45:15;20.60;99.90
11925;DHT22;6022;48.768;18.608;2022-07-29T04:47:48;20.90;99.90
11925;DHT22;6022;48.768;18.608;2022-07-29T04:50:16;20.80;99.90
11925;DHT22;6022;48.768;18.608;2022-07-29T04:52:43;21.20;99.90
11925;DHT22;6022;48.768;18.608;2022-07-29T04:55:10;21.10;99.90
11925;DHT22;6022;48.768;18.608;2022-07-29T04:57:38;21.30;99.90
11925;DHT22;6022;48.768;18.608;2022-07-29T05:00:07;21.20;99.90
11925;DHT22;6022;48.768;18.608;2022-07-29T05:02:35;21.30;99.90
11925;DHT22;6022;48.768;18.608;2022-07-29T05:05:02;21.30;99.90
11925;DHT22;6022;48.768;18.608;2022-07-29T05:07:30;21.80;99.90
11925;DHT22;6022;48.768;18.608;2022-07-29T05:09:57;21.90;99.90
11925;DHT22;6022;48.768;18.608;2022-07-29T05:12:25;22.80;99.90
11925;DHT22;6022;48.768;18.608;2022-07-29T05:14:53;24.70;99.90
11925;DHT22;6022;48.768;18.608;2022-07-29T05:17:21;25.20;99.90
11925;DHT22;6022;48.768;18.608;2022-07-29T05:19:48;25.50;99.90
11925;DHT22;6022;48.768;18.608;2022-07-29T05:22:19;25.50;99.90
11925;DHT22;6022;48.768;18.608;2022-07-29T05:24:47;25.90;99.90
11925;DHT22;6022;48.768;18.608;2022-07-29T05:27:14;26.20;99.90
11925;DHT22;6022;48.768;18.608;2022-07-29T05:29:42;26.60;99.90
11925;DHT22;6022;48.768;18.608;2022-07-29T05:32:12;27.30;99.90
11925;DHT22;6022;48.768;18.608;2022-07-29T05:34:41;27.40;99.90
11925;DHT22;6022;48.768;18.608;2022-07-29T05:37:18;27.60;99.90
11925;DHT22;6022;48.768;18.608;2022-07-29T05:39:46;28.60;99.90
11925;DHT22;6022;48.768;18.608;2022-07-29T05:42:23;29.30;98.50
11925;DHT22;6022;48.768;18.608;2022-07-29T05:44:51;29.80;95.70
11925;DHT22;6022;48.768;18.608;2022-07-29T05:47:19;29.30;93.90
11925;DHT22;6022;48.768;18.608;2022-07-29T05:49:46;29.30;94.30
11925;DHT22;6022;48.768;18.608;2022-07-29T05:52:14;29.80;92.60
11925;DHT22;6022;48.768;18.608;2022-07-29T05:54:42;29.90;92.70
11925;DHT22;6022;48.768;18.608;2022-07-29T05:57:18;31.00;91.20
11925;DHT22;6022;48.768;18.608;2022-07-29T05:59:49;32.30;78.10
11925;DHT22;6022;48.768;18.608;2022-07-29T06:02:18;32.50;78.60
11925;DHT22;6022;48.768;18.608;2022-07-29T06:04:45;32.70;76.30
11925;DHT22;6022;48.768;18.608;2022-07-29T06:07:13;32.90;73.50
11925;DHT22;6022;48.768;18.608;2022-07-29T06:09:40;33.20;72.20
11925;DHT22;6022;48.768;18.608;2022-07-29T06:12:09;33.30;70.50
11925;DHT22;6022;48.768;18.608;2022-07-29T06:14:37;34.00;67.40
11925;DHT22;6022;48.768;18.608;2022-07-29T06:17:05;34.40;64.50
11925;DHT22;6022;48.768;18.608;2022-07-29T06:19:36;34.60;62.20
11925;DHT22;6022;48.768;18.608;2022-07-29T06:22:03;35.20;58.70
11925;DHT22;6022;48.768;18.608;2022-07-29T06:24:31;35.30;59.10
11925;DHT22;6022;48.768;18.608;2022-07-29T06:26:58;35.80;56.70
11925;DHT22;6022;48.768;18.608;2022-07-29T06:29:26;35.40;56.20
11925;DHT22;6022;48.768;18.608;2022-07-29T06:31:53;36.00;55.30
11925;DHT22;6022;48.768;18.608;2022-07-29T06:34:22;36.00;53.70
11925;DHT22;6022;48.768;18.608;2022-07-29T06:36:49;36.50;52.90
11925;DHT22;6022;48.768;18.608;2022-07-29T06:39:20;36.80;51.20
11925;DHT22;6022;48.768;18.608;2022-07-29T06:41:48;36.80;50.10
11925;DHT22;6022;48.768;18.608;2022-07-29T06:44:18;36.90;49.60
11925;DHT22;6022;48.768;18.608;2022-07-29T06:46:46;37.20;48.80
11925;DHT22;6022;48.768;18.608;2022-07-29T06:49:16;37.80;47.50
11925;DHT22;6022;48.768;18.608;2022-07-29T06:51:43;38.00;45.90
11925;DHT22;6022;48.768;18.608;2022-07-29T06:54:13;38.40;44.90
11925;DHT22;6022;48.768;18.608;2022-07-29T06:56:41;38.60;43.50
11925;DHT22;6022;48.768;18.608;2022-07-29T06:59:10;39.50;42.50
11925;DHT22;6022;48.768;18.608;2022-07-29T07:01:40;40.10;40.30
11925;DHT22;6022;48.768;18.608;2022-07-29T07:04:10;40.50;38.70
11925;DHT22;6022;48.768;18.608;2022-07-29T07:06:38;39.90;38.00
11925;DHT22;6022;48.768;18.608;2022-07-29T07:09:07;40.30;38.10
11925;DHT22;6022;48.768;18.608;2022-07-29T07:11:34;40.80;36.30
11925;DHT22;6022;48.768;18.608;2022-07-29T07:14:04;41.30;35.60
11925;DHT22;6022;48.768;18.608;2022-07-29T07:16:32;41.30;34.80
11925;DHT22;6022;48.768;18.608;2022-07-29T07:19:00;42.00;34.10
11925;DHT22;6022;48.768;18.608;2022-07-29T07:21:28;41.80;32.70
11925;DHT22;6022;48.768;18.608;2022-07-29T07:23:59;41.90;32.10
11925;DHT22;6022;48.768;18.608;2022-07-29T07:26:29;41.80;31.70
11925;DHT22;6022;48.768;18.608;2022-07-29T07:28:57;42.00;31.40
11925;DHT22;6022;48.768;18.608;2022-07-29T07:31:25;42.10;32.20
11925;DHT22;6022;48.768;18.608;2022-07-29T07:33:52;42.10;32.90
11925;DHT22;6022;48.768;18.608;2022-07-29T07:36:20;41.40;34.20
11925;DHT22;6022;48.768;18.608;2022-07-29T07:38:49;41.10;33.00
11925;DHT22;6022;48.768;18.608;2022-07-29T07:41:17;40.50;34.20
11925;DHT22;6022;48.768;18.608;2022-07-29T07:43:44;40.40;32.50
11925;DHT22;6022;48.768;18.608;2022-07-29T07:46:11;39.30;32.70
11925;DHT22;6022;48.768;18.608;2022-07-29T07:48:39;38.80;33.80
11925;DHT22;6022;48.768;18.608;2022-07-29T07:51:07;38.40;34.70
11925;DHT22;6022;48.768;18.608;2022-07-29T07:53:34;38.50;36.00
11925;DHT22;6022;48.768;18.608;2022-07-29T07:56:02;39.00;34.50
11925;DHT22;6022;48.768;18.608;2022-07-29T07:58:36;39.60;34.90
11925;DHT22;6022;48.768;18.608;2022-07-29T08:01:04;39.70;34.70
11925;DHT22;6022;48.768;18.608;2022-07-29T08:03:32;40.20;33.70
11925;DHT22;6022;48.768;18.608;2022-07-29T08:06:03;40.70;32.20
11925;DHT22;6022;48.768;18.608;2022-07-29T08:08:31;40.90;32.10
11925;DHT22;6022;48.768;18.608;2022-07-29T08:10:58;41.00;31.80
11925;DHT22;6022;48.768;18.608;2022-07-29T08:13:34;41.50;29.70
11925;DHT22;6022;48.768;18.608;2022-07-29T08:16:04;41.60;32.60
11925;DHT22;6022;48.768;18.608;2022-07-29T08:18:40;41.90;31.10
11925;DHT22;6022;48.768;18.608;2022-07-29T08:21:09;41.70;29.40
11925;DHT22;6022;48.768;18.608;2022-07-29T08:23:41;42.20;30.00
11925;DHT22;6022;48.768;18.608;2022-07-29T08:26:24;42.00;30.20
11925;DHT22;6022;48.768;18.608;2022-07-29T08:28:52;41.70;30.00
11925;DHT22;6022;48.768;18.608;2022-07-29T08:31:19;41.70;29.80
11925;DHT22;6022;48.768;18.608;2022-07-29T08:33:49;41.60;30.10
11925;DHT22;6022;48.768;18.608;2022-07-29T08:36:16;42.40;29.80
11925;DHT22;6022;48.768;18.608;2022-07-29T08:38:44;43.60;27.50
11925;DHT22;6022;48.768;18.608;2022-07-29T08:41:12;43.90;26.90
11925;DHT22;6022;48.768;18.608;2022-07-29T08:43:40;44.10;26.00
11925;DHT22;6022;48.768;18.608;2022-07-29T08:46:08;43.60;25.90
11925;DHT22;6022;48.768;18.608;2022-07-29T08:48:36;43.20;26.30
11925;DHT22;6022;48.768;18.608;2022-07-29T08:51:06;43.30;26.10
11925;DHT22;6022;48.768;18.608;2022-07-29T08:53:36;43.10;25.80
11925;DHT22;6022;48.768;18.608;2022-07-29T08:56:05;43.10;25.50
11925;DHT22;6022;48.768;18.608;2022-07-29T08:58:33;42.90;25.90
11925;DHT22;6022;48.768;18.608;2022-07-29T09:01:04;43.40;25.20
11925;DHT22;6022;48.768;18.608;2022-07-29T09:03:36;44.10;25.80
11925;DHT22;6022;48.768;18.608;2022-07-29T09:06:09;44.50;25.10
11925;DHT22;6022;48.768;18.608;2022-07-29T09:08:41;44.30;24.30
11925;DHT22;6022;48.768;18.608;2022-07-29T09:11:09;43.50;24.20
11925;DHT22;6022;48.768;18.608;2022-07-29T09:13:38;41.80;25.00
11925;DHT22;6022;48.768;18.608;2022-07-29T09:16:06;40.90;26.10
11925;DHT22;6022;48.768;18.608;2022-07-29T09:18:46;41.00;26.70
11925;DHT22;6022;48.768;18.608;2022-07-29T09:21:15;41.00;26.80
11925;DHT22;6022;48.768;18.608;2022-07-29T09:24:09;41.10;26.40
11925;DHT22;6022;48.768;18.608;2022-07-29T09:26:41;40.80;26.60
11925;DHT22;6022;48.768;18.608;2022-07-29T09:31:51;41.80;26.30
11925;DHT22;6022;48.768;18.608;2022-07-29T09:34:28;41.40;25.80
11925;DHT22;6022;48.768;18.608;2022-07-29T09:36:57;42.20;26.00
11925;DHT22;6022;48.768;18.608;2022-07-29T09:39:37;42.90;25.30
11925;DHT22;6022;48.768;18.608;2022-07-29T09:42:28;43.20;24.40
11925;DHT22;6022;48.768;18.608;2022-07-29T09:44:59;43.30;24.50
11925;DHT22;6022;48.768;18.608;2022-07-29T09:47:41;43.40;23.90
11925;DHT22;6022;48.768;18.608;2022-07-29T09:50:12;43.70;23.40
11925;DHT22;6022;48.768;18.608;2022-07-29T09:52:51;43.60;23.40
11925;DHT22;6022;48.768;18.608;2022-07-29T09:55:20;43.30;23.70
11925;DHT22;6022;48.768;18.608;2022-07-29T09:57:47;42.00;24.30
11925;DHT22;6022;48.768;18.608;2022-07-29T10:00:17;40.40;25.50
11925;DHT22;6022;48.768;18.608;2022-07-29T10:02:47;38.80;26.80
11925;DHT22;6022;48.768;18.608;2022-07-29T10:05:23;37.70;28.00
11925;DHT22;6022;48.768;18.608;2022-07-29T10:07:56;37.20;29.30
11925;DHT22;6022;48.768;18.608;2022-07-29T10:13:06;39.50;27.70
11925;DHT22;6022;48.768;18.608;2022-07-29T10:15:43;40.50;26.50
11925;DHT22;6022;48.768;18.608;2022-07-29T10:18:13;41.10;26.20
11925;DHT22;6022;48.768;18.608;2022-07-29T10:20:45;41.20;25.40
11925;DHT22;6022;48.768;18.608;2022-07-29T10:23:13;40.90;25.10
11925;DHT22;6022;48.768;18.608;2022-07-29T10:25:41;41.00;25.60
11925;DHT22;6022;48.768;18.608;2022-07-29T10:28:12;40.50;25.40
11925;DHT22;6022;48.768;18.608;2022-07-29T10:30:43;39.90;25.10
11925;DHT22;6022;48.768;18.608;2022-07-29T10:33:32;39.50;25.60
11925;DHT22;6022;48.768;18.608;2022-07-29T10:39:15;37.60;27.40
11925;DHT22;6022;48.768;18.608;2022-07-29T10:42:19;37.50;27.60
11925;DHT22;6022;48.768;18.608;2022-07-29T10:45:01;38.30;27.00
11925;DHT22;6022;48.768;18.608;2022-07-29T10:47:31;38.30;26.80
11925;DHT22;6022;48.768;18.608;2022-07-29T10:50:05;37.80;27.30
11925;DHT22;6022;48.768;18.608;2022-07-29T10:52:52;36.40;28.90
11925;DHT22;6022;48.768;18.608;2022-07-29T10:55:36;35.50;29.60
11925;DHT22;6022;48.768;18.608;2022-07-29T10:58:18;35.40;30.40
11925;DHT22;6022;48.768;18.608;2022-07-29T11:00:51;34.30;32.90
11925;DHT22;6022;48.768;18.608;2022-07-29T11:06:16;32.50;31.20
11925;DHT22;6022;48.768;18.608;2022-07-29T11:09:16;31.70;31.20
11925;DHT22;6022;48.768;18.608;2022-07-29T11:12:01;31.20;32.60
11925;DHT22;6022;48.768;18.608;2022-07-29T11:17:19;30.40;38.80
11925;DHT22;6022;48.768;18.608;2022-07-29T11:19:47;30.40;39.60
11925;DHT22;6022;48.768;18.608;2022-07-29T11:22:35;30.00;38.70
11925;DHT22;6022;48.768;18.608;2022-07-29T11:25:16;30.20;39.10
11925;DHT22;6022;48.768;18.608;2022-07-29T11:28:18;30.20;37.90
11925;DHT22;6022;48.768;18.608;2022-07-29T11:30:52;30.60;34.50
11925;DHT22;6022;48.768;18.608;2022-07-29T11:33:31;30.50;34.80
11925;DHT22;6022;48.768;18.608;2022-07-29T11:36:19;31.50;33.70
11925;DHT22;6022;48.768;18.608;2022-07-29T11:39:26;31.60;32.50
11925;DHT22;6022;48.768;18.608;2022-07-29T11:45:11;34.40;30.50
11925;DHT22;6022;48.768;18.608;2022-07-29T11:48:01;34.40;30.70
11925;DHT22;6022;48.768;18.608;2022-07-29T11:50:48;34.90;29.20
11925;DHT22;6022;48.768;18.608;2022-07-29T11:53:16;34.90;29.80
11925;DHT22;6022;48.768;18.608;2022-07-29T11:55:44;35.30;29.60
11925;DHT22;6022;48.768;18.608;2022-07-29T11:58:31;35.40;29.10
11925;DHT22;6022;48.768;18.608;2022-07-29T12:01:00;35.70;29.10
11925;DHT22;6022;48.768;18.608;2022-07-29T12:03:31;35.90;27.80
11925;DHT22;6022;48.768;18.608;2022-07-29T12:06:03;35.70;27.90
11925;DHT22;6022;48.768;18.608;2022-07-29T12:08:42;35.90;27.70
11925;DHT22;6022;48.768;18.608;2022-07-29T12:11:18;35.80;29.80
11925;DHT22;6022;48.768;18.608;2022-07-29T12:13:50;35.80;31.40
11925;DHT22;6022;48.768;18.608;2022-07-29T12:16:20;35.60;32.80
11925;DHT22;6022;48.768;18.608;2022-07-29T12:19:00;34.80;32.60
11925;DHT22;6022;48.768;18.608;2022-07-29T12:21:45;34.20;33.70
11925;DHT22;6022;48.768;18.608;2022-07-29T12:24:22;33.90;34.50
11925;DHT22;6022;48.768;18.608;2022-07-29T12:26:58;33.40;35.10
11925;DHT22;6022;48.768;18.608;2022-07-29T12:29:28;33.10;35.30
11925;DHT22;6022;48.768;18.608;2022-07-29T12:32:02;33.00;34.90
11925;DHT22;6022;48.768;18.608;2022-07-29T12:34:40;32.60;34.80
11925;DHT22;6022;48.768;18.608;2022-07-29T12:37:09;32.60;35.40
11925;DHT22;6022;48.768;18.608;2022-07-29T12:39:37;32.50;36.20
11925;DHT22;6022;48.768;18.608;2022-07-29T12:42:12;32.30;38.60
11925;DHT22;6022;48.768;18.608;2022-07-29T12:44:48;31.90;40.20
11925;DHT22;6022;48.768;18.608;2022-07-29T12:47:19;31.90;41.20
11925;DHT22;6022;48.768;18.608;2022-07-29T12:49:48;31.80;43.20
11925;DHT22;6022;48.768;18.608;2022-07-29T12:54:56;32.40;38.40
11925;DHT22;6022;48.768;18.608;2022-07-29T12:57:24;32.30;39.60
11925;DHT22;6022;48.768;18.608;2022-07-29T13:02:35;32.80;38.60
11925;DHT22;6022;48.768;18.608;2022-07-29T13:05:05;32.60;38.00
11925;DHT22;6022;48.768;18.608;2022-07-29T13:07:34;32.60;38.90
11925;DHT22;6022;48.768;18.608;2022-07-29T13:10:23;32.50;39.50
11925;DHT22;6022;48.768;18.608;2022-07-29T13:13:09;32.30;40.50
11925;DHT22;6022;48.768;18.608;2022-07-29T13:15:43;31.90;41.50
11925;DHT22;6022;48.768;18.608;2022-07-29T13:18:34;31.90;43.50
11925;DHT22;6022;48.768;18.608;2022-07-29T13:21:19;31.90;44.70
11925;DHT22;6022;48.768;18.608;2022-07-29T13:23:46;31.70;42.90
11925;DHT22;6022;48.768;18.608;2022-07-29T13:26:13;31.60;43.50
11925;DHT22;6022;48.768;18.608;2022-07-29T13:28:45;31.60;43.90
11925;DHT22;6022;48.768;18.608;2022-07-29T13:31:12;31.50;43.70
11925;DHT22;6022;48.768;18.608;2022-07-29T13:33:39;31.40;43.60
11925;DHT22;6022;48.768;18.608;2022-07-29T13:36:07;31.30;42.40
11925;DHT22;6022;48.768;18.608;2022-07-29T13:38:34;31.40;42.70
11925;DHT22;6022;48.768;18.608;2022-07-29T13:41:02;31.50;43.20
11925;DHT22;6022;48.768;18.608;2022-07-29T13:43:31;31.60;42.70
11925;DHT22;6022;48.768;18.608;2022-07-29T13:45:58;31.80;43.50
11925;DHT22;6022;48.768;18.608;2022-07-29T13:48:26;31.90;41.80
11925;DHT22;6022;48.768;18.608;2022-07-29T13:50:53;31.80;42.50
11925;DHT22;6022;48.768;18.608;2022-07-29T13:53:20;31.70;42.30
11925;DHT22;6022;48.768;18.608;2022-07-29T13:55:53;31.80;42.30
11925;DHT22;6022;48.768;18.608;2022-07-29T13:58:20;31.70;42.70
11925;DHT22;6022;48.768;18.608;2022-07-29T14:00:48;31.50;42.10
11925;DHT22;6022;48.768;18.608;2022-07-29T14:03:15;31.40;41.80
11925;DHT22;6022;48.768;18.608;2022-07-29T14:05:43;31.50;42.60
11925;DHT22;6022;48.768;18.608;2022-07-29T14:08:11;31.60;42.70
11925;DHT22;6022;48.768;18.608;2022-07-29T14:10:41;31.70;42.00
11925;DHT22;6022;48.768;18.608;2022-07-29T14:13:08;31.90;41.40
11925;DHT22;6022;48.768;18.608;2022-07-29T14:15:52;32.20;41.50
11925;DHT22;6022;48.768;18.608;2022-07-29T14:18:20;32.30;42.00
11925;DHT22;6022;48.768;18.608;2022-07-29T14:20:47;32.10;42.80
11925;DHT22;6022;48.768;18.608;2022-07-29T14:23:17;32.00;45.30
11925;DHT22;6022;48.768;18.608;2022-07-29T14:25:46;31.80;43.90
11925;DHT22;6022;48.768;18.608;2022-07-29T14:28:15;31.70;45.60
11925;DHT22;6022;48.768;18.608;2022-07-29T14:30:43;31.80;46.80
11925;DHT22;6022;48.768;18.608;2022-07-29T14:33:10;31.90;47.30
11925;DHT22;6022;48.768;18.608;2022-07-29T14:35:38;31.80;48.00
11925;DHT22;6022;48.768;18.608;2022-07-29T14:38:06;31.60;45.10
11925;DHT22;6022;48.768;18.608;2022-07-29T14:40:33;31.60;45.90
11925;DHT22;6022;48.768;18.608;2022-07-29T14:43:01;31.20;45.60
11925;DHT22;6022;48.768;18.608;2022-07-29T14:45:28;31.10;46.10
11925;DHT22;6022;48.768;18.608;2022-07-29T14:47:55;30.80;45.60
11925;DHT22;6022;48.768;18.608;2022-07-29T14:50:26;30.70;46.10
11925;DHT22;6022;48.768;18.608;2022-07-29T14:52:58;30.60;47.40
11925;DHT22;6022;48.768;18.608;2022-07-29T14:55:27;30.30;50.70
11925;DHT22;6022;48.768;18.608;2022-07-29T14:57:54;30.20;52.80
11925;DHT22;6022;48.768;18.608;2022-07-29T15:00:36;29.80;54.30
11925;DHT22;6022;48.768;18.608;2022-07-29T15:03:04;29.80;55.00
11925;DHT22;6022;48.768;18.608;2022-07-29T15:05:37;29.80;56.20
11925;DHT22;6022;48.768;18.608;2022-07-29T15:08:04;29.30;57.90
11925;DHT22;6022;48.768;18.608;2022-07-29T15:10:31;29.20;59.40
11925;DHT22;6022;48.768;18.608;2022-07-29T15:12:59;28.70;61.60
11925;DHT22;6022;48.768;18.608;2022-07-29T15:15:30;28.70;62.80
11925;DHT22;6022;48.768;18.608;2022-07-29T15:17:57;28.70;65.70
11925;DHT22;6022;48.768;18.608;2022-07-29T15:20:24;28.60;68.40
11925;DHT22;6022;48.768;18.608;2022-07-29T15:22:56;28.80;69.90
11925;DHT22;6022;48.768;18.608;2022-07-29T15:25:26;28.80;70.60
11925;DHT22;6022;48.768;18.608;2022-07-29T15:27:54;28.50;67.90
11925;DHT22;6022;48.768;18.608;2022-07-29T15:30:27;28.50;68.90
11925;DHT22;6022;48.768;18.608;2022-07-29T15:33:01;28.60;69.20
11925;DHT22;6022;48.768;18.608;2022-07-29T15:35:30;28.60;69.40
11925;DHT22;6022;48.768;18.608;2022-07-29T15:37:58;28.70;69.00
11925;DHT22;6022;48.768;18.608;2022-07-29T15:40:25;28.60;70.60
11925;DHT22;6022;48.768;18.608;2022-07-29T15:42:53;28.60;71.70
11925;DHT22;6022;48.768;18.608;2022-07-29T15:45:23;28.50;69.60
11925;DHT22;6022;48.768;18.608;2022-07-29T15:47:58;28.50;70.40
11925;DHT22;6022;48.768;18.608;2022-07-29T15:50:25;28.20;81.40
11925;DHT22;6022;48.768;18.608;2022-07-29T15:52:53;28.30;83.40
11925;DHT22;6022;48.768;18.608;2022-07-29T15:55:20;28.20;88.20
11925;DHT22;6022;48.768;18.608;2022-07-29T15:57:50;27.70;93.80
11925;DHT22;6022;48.768;18.608;2022-07-29T16:00:21;27.40;97.80
11925;DHT22;6022;48.768;18.608;2022-07-29T16:02:50;27.40;98.70
11925;DHT22;6022;48.768;18.608;2022-07-29T16:05:18;27.10;99.90
11925;DHT22;6022;48.768;18.608;2022-07-29T16:07:45;26.50;99.90
11925;DHT22;6022;48.768;18.608;2022-07-29T16:10:13;26.70;99.90
11925;DHT22;6022;48.768;18.608;2022-07-29T16:12:40;25.70;99.90
11925;DHT22;6022;48.768;18.608;2022-07-29T16:15:08;25.60;99.90
11925;DHT22;6022;48.768;18.608;2022-07-29T16:17:39;25.40;99.90
11925;DHT22;6022;48.768;18.608;2022-07-29T16:20:11;25.30;99.90
11925;DHT22;6022;48.768;18.608;2022-07-29T16:22:39;25.20;99.90
11925;DHT22;6022;48.768;18.608;2022-07-29T16:25:07;25.00;99.90
11925;DHT22;6022;48.768;18.608;2022-07-29T16:27:35;24.90;99.90
11925;DHT22;6022;48.768;18.608;2022-07-29T16:30:05;25.00;99.90
11925;DHT22;6022;48.768;18.608;2022-07-29T16:32:39;25.10;99.90
11925;DHT22;6022;48.768;18.608;2022-07-29T16:35:07;25.10;99.90
11925;DHT22;6022;48.768;18.608;2022-07-29T16:37:35;25.10;99.90